Time;durP1;ratioP1;P1;durP2;ratioP2;P2;SDS_P1;SDS_P2;PMS_P1;PMS_P2;Temp;Humidity;BMP_temperature;BMP_pressure;BME280_temperature;BME280_humidity;BME280_pressure;Samples;Min_cycle;Max_cycle;Signal;HPM_P1;HPM_P2
2021/05/28 00:00:36;;;;;;;6.10;5.60;;;12.40;99.90;;;;;;5067361;28;20683;-66
2021/05/28 00:03:02;;;;;;;6.67;6.17;;;12.50;99.90;;;;;;5063742;28;20169;-66
2021/05/28 00:05:28;;;;;;;6.30;5.80;;;12.40;99.90;;;;;;5056060;28;20181;-66
2021/05/28 00:07:55;;;;;;;6.50;6.00;;;12.30;99.90;;;;;;5066002;28;20245;-66
2021/05/28 00:10:20;;;;;;;7.30;6.70;;;12.30;99.90;;;;;;5062674;28;20441;-66
2021/05/28 00:12:46;;;;;;;6.57;6.07;;;12.30;99.90;;;;;;5062105;28;20432;-66
2021/05/28 00:15:13;;;;;;;6.60;6.00;;;12.30;99.90;;;;;;5053037;28;20252;-66
2021/05/28 00:17:38;;;;;;;8.00;7.30;;;12.30;99.90;;;;;;5054746;28;20335;-66
2021/05/28 00:20:06;;;;;;;7.93;7.33;;;12.20;99.90;;;;;;5055470;28;20510;-66
2021/05/28 00:22:31;;;;;;;8.07;7.37;;;12.20;99.90;;;;;;5067860;28;20181;-66
2021/05/28 00:24:57;;;;;;;8.80;8.10;;;12.20;99.90;;;;;;5070061;28;20431;-66
2021/05/28 00:27:27;;;;;;;8.80;8.00;;;12.30;99.90;;;;;;5064552;28;20212;-66
2021/05/28 00:29:53;;;;;;;10.30;9.30;;;12.20;99.90;;;;;;5052620;28;20272;-66
2021/05/28 00:32:18;;;;;;;8.73;8.07;;;12.20;99.90;;;;;;5050677;28;20570;-66
2021/05/28 00:34:44;;;;;;;9.03;8.33;;;12.20;99.90;;;;;;5058797;28;20550;-66
2021/05/28 00:37:10;;;;;;;9.97;9.00;;;12.20;99.90;;;;;;5060454;28;20180;-66
2021/05/28 00:39:35;;;;;;;10.20;9.30;;;12.20;99.90;;;;;;5065262;28;20279;-66
2021/05/28 00:42:01;;;;;;;9.93;9.13;;;12.40;99.90;;;;;;5051452;28;20173;-66
2021/05/28 00:44:28;;;;;;;9.87;8.97;;;12.40;99.90;;;;;;5056210;28;20689;-66
2021/05/28 00:46:53;;;;;;;10.60;8.80;;;12.40;99.90;;;;;;5053446;28;20635;-65
2021/05/28 00:49:19;;;;;;;10.23;9.13;;;12.40;99.90;;;;;;5064213;28;20549;-66
2021/05/28 00:51:45;;;;;;;9.80;8.90;;;12.40;99.90;;;;;;5062933;28;20193;-67
2021/05/28 00:54:11;;;;;;;10.73;9.73;;;12.40;99.90;;;;;;5054450;28;20816;-66
2021/05/28 00:56:40;;;;;;;9.77;8.77;;;12.30;99.90;;;;;;5062566;28;20428;-67
2021/05/28 00:59:07;;;;;;;9.00;8.10;;;12.30;99.90;;;;;;5070829;28;20255;-65
2021/05/28 01:01:33;;;;;;;9.83;8.90;;;12.40;99.90;;;;;;5069702;28;20434;-67
2021/05/28 01:03:59;;;;;;;8.07;7.47;;;12.40;99.90;;;;;;5063984;28;20426;-67
2021/05/28 01:06:25;;;;;;;8.10;7.47;;;12.40;99.90;;;;;;5067319;28;20804;-66
2021/05/28 01:08:51;;;;;;;8.93;8.20;;;12.40;99.90;;;;;;5056023;28;20224;-66
2021/05/28 01:11:16;;;;;;;8.10;7.40;;;12.50;99.90;;;;;;5065823;28;20428;-66
2021/05/28 01:13:42;;;;;;;7.80;7.10;;;12.60;99.90;;;;;;5054336;28;20690;-67
2021/05/28 01:16:08;;;;;;;8.53;7.73;;;12.60;99.90;;;;;;5064883;28;20185;-66
2021/05/28 01:18:34;;;;;;;8.03;7.43;;;12.50;99.90;;;;;;5071870;28;20632;-65
2021/05/28 01:21:00;;;;;;;7.87;6.90;;;12.40;99.90;;;;;;5064845;28;20186;-66
2021/05/28 01:23:26;;;;;;;7.50;6.83;;;12.40;99.90;;;;;;5072658;28;20435;-66
2021/05/28 01:25:52;;;;;;;6.40;5.90;;;12.50;99.90;;;;;;5064539;28;20223;-65
2021/05/28 01:28:17;;;;;;;7.50;6.80;;;12.40;99.90;;;;;;5054905;28;20964;-66
2021/05/28 01:30:43;;;;;;;6.67;6.07;;;12.50;99.90;;;;;;5053608;28;20670;-66
2021/05/28 01:33:09;;;;;;;6.13;5.63;;;12.40;99.90;;;;;;5054361;28;20537;-66
2021/05/28 01:35:35;;;;;;;6.40;5.80;;;12.50;99.90;;;;;;5058998;28;20165;-67
2021/05/28 01:38:03;;;;;;;6.10;5.60;;;12.50;99.90;;;;;;5069149;28;20477;-66
2021/05/28 01:40:28;;;;;;;5.73;5.23;;;12.50;99.90;;;;;;5068064;28;20275;-66
2021/05/28 01:42:54;;;;;;;6.00;5.50;;;12.50;99.90;;;;;;5057172;28;20548;-66
2021/05/28 01:45:21;;;;;;;6.33;4.90;;;12.50;99.90;;;;;;5059342;28;20201;-66
2021/05/28 01:47:46;;;;;;;5.97;5.47;;;12.50;99.90;;;;;;5063180;28;20194;-66
2021/05/28 01:50:13;;;;;;;7.07;6.40;;;12.40;99.90;;;;;;5056655;28;20428;-66
2021/05/28 01:52:40;;;;;;;7.13;5.57;;;12.40;99.90;;;;;;5070688;28;20229;-66
2021/05/28 01:55:08;;;;;;;6.43;5.93;;;12.40;99.90;;;;;;5053505;28;20428;-66
2021/05/28 01:57:34;;;;;;;6.37;5.77;;;12.30;99.90;;;;;;5059324;28;20481;-66
2021/05/28 02:00:00;;;;;;;6.30;5.70;;;12.30;99.90;;;;;;5070037;28;20474;-66
2021/05/28 02:02:25;;;;;;;6.80;6.10;;;12.20;99.90;;;;;;5066539;28;20185;-66
2021/05/28 02:04:51;;;;;;;6.87;6.20;;;12.10;99.90;;;;;;5070214;28;20185;-66
2021/05/28 02:07:16;;;;;;;5.70;5.20;;;12.10;99.90;;;;;;5052778;28;20281;-66
2021/05/28 02:09:42;;;;;;;6.33;5.77;;;12.20;99.90;;;;;;5060505;28;20211;-66
2021/05/28 02:12:08;;;;;;;5.30;4.80;;;12.20;99.90;;;;;;5070746;28;20177;-66
2021/05/28 02:14:34;;;;;;;6.20;5.70;;;12.20;99.90;;;;;;5071989;28;20263;-66
2021/05/28 02:17:00;;;;;;;5.40;4.93;;;12.20;99.90;;;;;;5067677;28;20212;-66
2021/05/28 02:19:25;;;;;;;6.40;5.40;;;12.20;99.90;;;;;;5064397;28;20455;-66
2021/05/28 02:21:52;;;;;;;9.30;5.37;;;12.20;99.90;;;;;;5059737;28;20222;-66
2021/05/28 02:24:17;;;;;;;5.00;4.60;;;12.20;99.90;;;;;;5056256;28;20463;-66
2021/05/28 02:26:46;;;;;;;4.50;4.10;;;12.20;99.90;;;;;;5068166;28;20951;-66
2021/05/28 02:29:12;;;;;;;4.90;4.50;;;12.20;99.90;;;;;;5056712;28;20523;-66
2021/05/28 02:31:39;;;;;;;6.20;4.93;;;12.20;99.90;;;;;;5066672;28;20435;-66
2021/05/28 02:34:05;;;;;;;4.87;4.37;;;12.20;99.90;;;;;;5060888;28;20787;-66
2021/05/28 02:36:31;;;;;;;4.80;4.50;;;12.20;99.90;;;;;;5064325;28;20464;-66
2021/05/28 02:38:57;;;;;;;4.70;4.30;;;12.10;99.90;;;;;;5064233;28;20208;-67
2021/05/28 02:41:23;;;;;;;4.93;4.17;;;12.10;99.90;;;;;;5052183;28;20929;-66
2021/05/28 02:43:48;;;;;;;4.27;3.83;;;12.00;99.90;;;;;;5061831;28;20658;-67
2021/05/28 02:46:14;;;;;;;3.93;3.63;;;12.00;99.90;;;;;;5059418;28;20180;-66
2021/05/28 02:48:40;;;;;;;3.90;3.60;;;12.00;99.90;;;;;;5066767;28;20236;-67
2021/05/28 02:51:05;;;;;;;4.20;3.90;;;12.00;99.90;;;;;;5057535;28;20176;-66
2021/05/28 02:53:34;;;;;;;4.37;3.80;;;12.10;99.90;;;;;;5062219;28;20177;-66
2021/05/28 02:56:04;;;;;;;4.67;4.27;;;12.10;99.90;;;;;;5066132;28;20476;-66
2021/05/28 02:58:30;;;;;;;4.60;4.30;;;12.10;99.90;;;;;;5051989;28;20819;-66
2021/05/28 03:00:56;;;;;;;5.00;4.50;;;12.10;99.90;;;;;;5058219;28;20427;-66
2021/05/28 03:03:22;;;;;;;4.70;4.30;;;12.10;99.90;;;;;;5070356;28;20242;-66
2021/05/28 03:05:50;;;;;;;5.17;4.67;;;12.20;99.90;;;;;;5069830;28;20439;-66
2021/05/28 03:08:16;;;;;;;4.33;3.53;;;12.10;99.90;;;;;;5068863;28;20212;-66
2021/05/28 03:10:41;;;;;;;5.40;4.53;;;12.20;99.90;;;;;;5063130;28;20778;-66
2021/05/28 03:13:07;;;;;;;4.40;4.00;;;12.10;99.90;;;;;;5063109;28;20438;-66
2021/05/28 03:15:32;;;;;;;6.87;4.70;;;12.00;99.90;;;;;;5071098;28;20256;-66
2021/05/28 03:17:58;;;;;;;7.13;5.07;;;11.90;99.90;;;;;;5055133;28;20196;-66
2021/05/28 03:20:26;;;;;;;4.13;3.73;;;12.00;99.90;;;;;;5065684;28;20177;-66
2021/05/28 03:22:52;;;;;;;4.20;3.73;;;12.10;99.90;;;;;;5064477;28;20173;-65
2021/05/28 03:25:17;;;;;;;4.23;3.90;;;12.10;99.90;;;;;;5058286;28;20435;-66
2021/05/28 03:27:44;;;;;;;4.50;4.10;;;12.20;99.90;;;;;;5051371;28;20679;-66
2021/05/28 03:30:11;;;;;;;4.57;4.17;;;12.20;99.90;;;;;;5053220;28;20170;-67
2021/05/28 03:32:37;;;;;;;4.40;4.00;;;12.10;99.90;;;;;;5064723;28;20442;-66
2021/05/28 03:35:03;;;;;;;5.67;5.07;;;11.90;99.90;;;;;;5062804;28;20446;-66
2021/05/28 03:37:29;;;;;;;4.40;4.10;;;11.60;99.90;;;;;;5056719;28;20874;-65
2021/05/28 03:39:54;;;;;;;4.90;4.47;;;11.40;99.90;;;;;;5060130;28;20478;-66
2021/05/28 03:42:20;;;;;;;4.90;4.50;;;11.40;99.90;;;;;;5068863;28;20185;-67
2021/05/28 03:44:46;;;;;;;5.50;5.00;;;11.40;99.90;;;;;;5068840;28;20214;-65
2021/05/28 03:47:12;;;;;;;5.73;5.17;;;11.40;99.90;;;;;;5051128;28;20730;-66
2021/05/28 03:49:39;;;;;;;6.77;5.10;;;11.60;99.90;;;;;;5067012;28;20545;-66
2021/05/28 03:52:05;;;;;;;5.27;4.80;;;11.60;99.90;;;;;;5061115;28;20177;-65
2021/05/28 03:54:32;;;;;;;5.40;4.90;;;11.60;99.90;;;;;;5051251;28;20427;-64
2021/05/28 03:56:57;;;;;;;5.90;4.57;;;11.70;99.90;;;;;;5067476;28;20427;-66
2021/05/28 03:59:23;;;;;;;5.67;5.10;;;11.80;99.90;;;;;;5058687;28;20459;-66
2021/05/28 04:01:48;;;;;;;5.73;4.97;;;11.60;99.90;;;;;;5060531;28;20178;-65
2021/05/28 04:04:15;;;;;;;5.43;4.60;;;11.60;99.90;;;;;;5063472;28;20242;-66
2021/05/28 04:06:40;;;;;;;5.93;4.80;;;11.50;99.90;;;;;;5069733;28;20616;-66
2021/05/28 04:09:06;;;;;;;6.00;5.43;;;11.50;99.90;;;;;;5050342;28;20482;-66
2021/05/28 04:11:31;;;;;;;7.20;5.10;;;11.40;99.90;;;;;;5061212;28;20174;-66
2021/05/28 04:13:57;;;;;;;4.90;4.50;;;11.30;99.90;;;;;;5052696;28;20217;-66
2021/05/28 04:16:22;;;;;;;5.77;5.27;;;11.30;99.90;;;;;;5070570;28;20662;-66
2021/05/28 04:18:48;;;;;;;5.03;4.50;;;11.20;99.90;;;;;;5053188;28;20208;-66
2021/05/28 04:21:14;;;;;;;5.10;4.60;;;11.10;99.90;;;;;;5058117;28;20180;-66
2021/05/28 04:23:39;;;;;;;8.93;4.40;;;11.20;99.90;;;;;;5067714;28;20431;-66
2021/05/28 04:26:05;;;;;;;6.23;4.53;;;11.10;99.90;;;;;;5065977;28;20693;-66
2021/05/28 04:28:30;;;;;;;5.10;4.60;;;11.20;99.90;;;;;;5067476;28;20204;-66
2021/05/28 04:30:57;;;;;;;5.47;4.67;;;11.30;99.90;;;;;;5055559;28;20593;-66
2021/05/28 04:33:23;;;;;;;6.00;5.40;;;11.30;99.90;;;;;;5059235;28;20644;-66
2021/05/28 04:35:49;;;;;;;7.10;4.47;;;11.30;99.90;;;;;;5073470;28;20479;-66
2021/05/28 04:38:14;;;;;;;5.00;4.70;;;11.30;99.90;;;;;;5054342;28;20456;-66
2021/05/28 04:40:40;;;;;;;4.97;4.57;;;11.30;99.90;;;;;;5064127;28;20181;-66
2021/05/28 04:43:06;;;;;;;5.30;4.80;;;11.40;99.90;;;;;;5063775;28;20177;-66
2021/05/28 04:45:31;;;;;;;10.97;5.40;;;11.40;99.90;;;;;;5066884;28;20515;-66
2021/05/28 04:47:57;;;;;;;4.80;4.40;;;11.50;99.90;;;;;;5064466;28;20604;-66
2021/05/28 04:50:30;;;;;;;4.73;4.30;;;11.50;99.90;;;;;;5060382;28;20178;-66
2021/05/28 04:53:00;;;;;;;5.77;5.10;;;11.50;99.90;;;;;;5060464;28;20188;-66
2021/05/28 04:55:27;;;;;;;5.70;5.20;;;11.50;99.90;;;;;;5068133;28;20427;-66
2021/05/28 04:57:53;;;;;;;6.13;5.10;;;11.60;99.90;;;;;;5062617;28;20471;-66
2021/05/28 05:00:20;;;;;;;6.63;6.03;;;11.60;99.90;;;;;;5059260;28;20940;-66
2021/05/28 05:02:46;;;;;;;6.33;5.83;;;11.80;99.90;;;;;;5061644;28;20431;-66
2021/05/28 05:05:12;;;;;;;8.20;5.97;;;11.80;99.90;;;;;;5057718;28;20438;-66
2021/05/28 05:07:38;;;;;;;11.97;7.13;;;11.90;99.90;;;;;;5058041;28;20242;-66
2021/05/28 05:10:04;;;;;;;6.50;5.90;;;12.00;99.90;;;;;;5054076;28;20546;-66
2021/05/28 05:12:30;;;;;;;7.33;6.63;;;12.20;99.90;;;;;;5066667;28;20610;-66
2021/05/28 05:14:55;;;;;;;8.10;6.80;;;12.40;99.90;;;;;;5070921;28;20477;-66
2021/05/28 05:17:21;;;;;;;8.83;7.13;;;12.50;99.90;;;;;;5059869;28;20212;-66
2021/05/28 05:19:46;;;;;;;7.77;7.07;;;12.60;99.90;;;;;;5072737;28;20204;-66
2021/05/28 05:22:12;;;;;;;9.60;8.33;;;12.60;99.90;;;;;;5059825;28;20185;-66
2021/05/28 05:24:37;;;;;;;9.00;7.07;;;12.80;99.90;;;;;;5053754;28;20184;-66
2021/05/28 05:27:03;;;;;;;7.97;6.70;;;12.80;99.90;;;;;;5072316;28;20539;-67
2021/05/28 05:29:29;;;;;;;10.67;7.73;;;12.90;99.90;;;;;;5066935;28;20272;-66
2021/05/28 05:31:54;;;;;;;10.17;7.57;;;12.90;99.90;;;;;;5058402;28;20438;-65
2021/05/28 05:34:20;;;;;;;7.07;6.47;;;12.80;99.90;;;;;;5073362;28;20230;-65
2021/05/28 05:36:46;;;;;;;7.83;7.00;;;12.80;99.90;;;;;;5061334;28;20174;-66
2021/05/28 05:39:11;;;;;;;10.83;8.20;;;12.70;99.90;;;;;;5065666;28;20598;-66
2021/05/28 05:41:37;;;;;;;11.60;8.13;;;12.80;99.90;;;;;;5065580;28;20188;-65
2021/05/28 05:44:03;;;;;;;8.90;7.80;;;12.70;99.90;;;;;;5056130;28;20203;-65
2021/05/28 05:46:28;;;;;;;9.10;8.30;;;12.70;99.90;;;;;;5065659;28;20186;-66
2021/05/28 05:48:54;;;;;;;10.33;9.27;;;12.80;99.90;;;;;;5068853;28;21018;-66
2021/05/28 05:51:19;;;;;;;9.17;8.20;;;12.80;99.90;;;;;;5060345;28;20193;-65
2021/05/28 05:53:45;;;;;;;9.67;8.17;;;12.90;99.90;;;;;;5060855;28;20173;-65
2021/05/28 05:56:10;;;;;;;8.53;7.73;;;13.00;99.90;;;;;;5068897;28;20209;-65
2021/05/28 05:58:36;;;;;;;8.40;7.57;;;13.00;99.90;;;;;;5067816;28;20345;-65
2021/05/28 06:01:02;;;;;;;9.40;6.57;;;13.20;99.90;;;;;;5071237;28;20185;-66
2021/05/28 06:03:27;;;;;;;9.00;8.30;;;13.30;99.90;;;;;;5069558;28;20641;-65
2021/05/28 06:05:53;;;;;;;7.80;7.10;;;13.20;99.90;;;;;;5068745;28;20211;-66
2021/05/28 06:08:19;;;;;;;8.57;7.70;;;13.30;99.90;;;;;;5052748;28;20213;-65
2021/05/28 06:10:44;;;;;;;12.20;7.90;;;13.20;99.90;;;;;;5063050;28;20414;-66
2021/05/28 06:13:10;;;;;;;8.80;8.10;;;13.30;99.90;;;;;;5072532;28;20192;-66
2021/05/28 06:15:36;;;;;;;9.23;7.97;;;13.50;99.90;;;;;;5065513;28;20574;-66
2021/05/28 06:18:01;;;;;;;15.60;9.17;;;13.40;99.90;;;;;;5070214;28;20496;-65
2021/05/28 06:20:28;;;;;;;8.07;7.30;;;13.60;99.90;;;;;;5056816;28;20181;-66
2021/05/28 06:22:54;;;;;;;8.50;7.50;;;13.90;99.90;;;;;;5067783;28;20230;-66
2021/05/28 06:25:19;;;;;;;8.50;7.77;;;14.10;99.90;;;;;;5058541;28;20440;-65
2021/05/28 06:27:45;;;;;;;9.80;7.43;;;14.20;99.90;;;;;;5058725;28;20463;-66
2021/05/28 06:30:11;;;;;;;8.87;7.83;;;14.40;99.90;;;;;;5045715;28;20227;-66
2021/05/28 06:32:37;;;;;;;7.50;6.50;;;14.60;99.90;;;;;;5052808;28;20234;-66
2021/05/28 06:35:04;;;;;;;9.63;7.80;;;14.70;99.90;;;;;;5061400;28;20841;-66
2021/05/28 06:37:30;;;;;;;9.50;7.77;;;14.70;99.90;;;;;;5071565;28;20434;-66
2021/05/28 06:39:55;;;;;;;11.33;8.10;;;14.60;99.90;;;;;;5061767;28;20452;-66
2021/05/28 06:42:21;;;;;;;8.70;7.80;;;14.60;99.90;;;;;;5071635;28;20189;-66
2021/05/28 06:44:47;;;;;;;9.30;8.50;;;14.60;99.90;;;;;;5064403;28;20194;-67
2021/05/28 06:47:13;;;;;;;8.83;8.00;;;14.40;99.90;;;;;;5052538;28;20641;-66
2021/05/28 06:49:39;;;;;;;14.00;7.50;;;14.70;99.90;;;;;;5060651;28;20205;-66
2021/05/28 06:52:04;;;;;;;12.33;7.33;;;15.00;99.90;;;;;;5058535;28;20432;-66
2021/05/28 06:54:31;;;;;;;7.93;6.60;;;15.40;99.90;;;;;;5053503;28;20227;-67
2021/05/28 06:56:57;;;;;;;7.27;6.67;;;15.50;99.90;;;;;;5066818;28;20221;-66
2021/05/28 06:59:22;;;;;;;7.70;6.87;;;15.80;99.90;;;;;;5071660;28;20482;-66
2021/05/28 07:01:48;;;;;;;9.60;7.77;;;15.90;99.90;;;;;;5056014;28;20261;-66
2021/05/28 07:04:13;;;;;;;7.30;6.60;;;15.90;99.90;;;;;;5053492;28;20169;-66
2021/05/28 07:06:39;;;;;;;7.87;7.10;;;16.10;99.90;;;;;;5065067;28;20177;-65
2021/05/28 07:09:06;;;;;;;8.97;8.17;;;16.20;99.90;;;;;;5073071;28;20196;-66
2021/05/28 07:11:32;;;;;;;7.83;7.13;;;16.40;99.90;;;;;;5068460;28;20520;-66
2021/05/28 07:13:58;;;;;;;7.87;7.10;;;16.50;99.90;;;;;;5070936;28;20946;-66
2021/05/28 07:16:23;;;;;;;7.83;7.07;;;16.60;99.90;;;;;;5066150;28;20185;-65
2021/05/28 07:18:49;;;;;;;8.00;7.17;;;16.90;99.90;;;;;;5061366;28;20820;-66
2021/05/28 07:21:15;;;;;;;8.90;7.03;;;16.80;99.90;;;;;;5051816;28;20181;-66
2021/05/28 07:23:40;;;;;;;7.43;6.73;;;16.50;99.90;;;;;;5069677;28;20269;-65
2021/05/28 07:26:06;;;;;;;7.67;6.47;;;16.20;99.90;;;;;;5062585;28;20678;-66
2021/05/28 07:28:32;;;;;;;6.50;5.97;;;16.40;99.90;;;;;;5065861;28;20807;-66
2021/05/28 07:30:59;;;;;;;7.07;6.37;;;16.70;99.90;;;;;;5057856;28;20231;-66
2021/05/28 07:33:24;;;;;;;8.57;7.67;;;16.40;99.90;;;;;;5049454;28;20463;-66
2021/05/28 07:35:51;;;;;;;6.73;6.13;;;16.50;99.90;;;;;;5048635;28;20455;-65
2021/05/28 07:38:16;;;;;;;12.27;6.53;;;17.00;99.90;;;;;;5064398;28;20566;-66
2021/05/28 07:40:42;;;;;;;5.97;5.37;;;17.00;99.90;;;;;;5067320;28;20522;-66
2021/05/28 07:43:08;;;;;;;7.67;5.23;;;17.20;99.90;;;;;;5068361;28;20169;-64
2021/05/28 07:45:34;;;;;;;7.43;5.80;;;17.20;99.90;;;;;;5049664;28;20461;-65
2021/05/28 07:48:00;;;;;;;8.90;5.07;;;17.40;99.90;;;;;;5058520;28;20220;-65
2021/05/28 07:50:25;;;;;;;5.90;5.40;;;17.70;99.90;;;;;;5068223;28;20189;-65
2021/05/28 07:52:51;;;;;;;5.10;4.60;;;17.70;99.90;;;;;;5048532;28;20178;-64
2021/05/28 07:55:17;;;;;;;8.00;5.70;;;18.30;99.90;;;;;;5048738;28;20181;-66
2021/05/28 07:57:43;;;;;;;5.20;4.70;;;18.50;99.90;;;;;;5060853;28;20832;-66
2021/05/28 08:00:10;;;;;;;5.50;5.10;;;18.50;99.90;;;;;;5049812;28;20436;-65
2021/05/28 08:02:36;;;;;;;7.80;7.10;;;18.80;99.90;;;;;;5053889;28;20427;-64
2021/05/28 08:05:02;;;;;;;6.63;5.40;;;18.60;99.90;;;;;;5065753;28;20442;-65
2021/05/28 08:07:28;;;;;;;6.77;5.33;;;18.70;99.90;;;;;;5065768;28;20207;-65
2021/05/28 08:09:54;;;;;;;8.27;6.20;;;18.80;99.90;;;;;;5062477;28;20448;-65
2021/05/28 08:12:19;;;;;;;6.77;6.10;;;18.60;99.90;;;;;;5067031;28;20304;-65
2021/05/28 08:14:45;;;;;;;6.83;6.23;;;18.50;99.90;;;;;;5063709;28;20222;-65
2021/05/28 08:17:11;;;;;;;7.20;6.53;;;18.40;99.90;;;;;;5059294;28;20265;-66
2021/05/28 08:19:37;;;;;;;10.47;6.77;;;18.00;99.90;;;;;;5061329;28;20212;-64
2021/05/28 08:22:03;;;;;;;10.40;7.60;;;17.90;99.90;;;;;;5065671;28;20439;-66
2021/05/28 08:24:28;;;;;;;8.83;8.03;;;18.10;99.90;;;;;;5052161;28;20197;-64
2021/05/28 08:26:54;;;;;;;6.47;5.87;;;18.40;99.90;;;;;;5048895;28;20197;-65
2021/05/28 08:29:19;;;;;;;6.90;6.33;;;18.40;99.90;;;;;;5057880;28;20247;-65
2021/05/28 08:31:45;;;;;;;6.70;5.77;;;18.50;99.90;;;;;;5052653;28;20591;-66
2021/05/28 08:34:10;;;;;;;9.23;6.53;;;18.50;99.90;;;;;;5055650;28;20227;-65
2021/05/28 08:36:36;;;;;;;8.03;6.50;;;18.50;99.90;;;;;;5051673;28;20183;-65
2021/05/28 08:39:03;;;;;;;7.13;6.17;;;18.60;99.90;;;;;;5058457;28;20233;-66
2021/05/28 08:41:29;;;;;;;4.67;4.27;;;18.70;99.90;;;;;;5049665;28;20249;-66
2021/05/28 08:43:54;;;;;;;6.20;4.67;;;18.50;99.90;;;;;;5057532;28;20443;-65
2021/05/28 08:46:21;;;;;;;5.83;4.30;;;17.90;99.90;;;;;;5064594;28;20260;-65
2021/05/28 08:48:50;;;;;;;4.63;4.33;;;18.10;99.90;;;;;;5055164;28;20237;-65
2021/05/28 08:51:17;;;;;;;4.60;4.27;;;18.40;99.90;;;;;;5063906;28;20470;-65
2021/05/28 08:53:42;;;;;;;5.40;4.80;;;18.50;99.90;;;;;;5053182;28;20498;-66
2021/05/28 08:56:09;;;;;;;7.53;5.00;;;18.60;99.90;;;;;;5062981;28;20426;-65
2021/05/28 08:58:35;;;;;;;5.30;4.67;;;18.60;99.90;;;;;;5059665;28;20572;-64
2021/05/28 09:01:01;;;;;;;6.57;6.03;;;18.40;99.90;;;;;;5056250;28;20454;-65
2021/05/28 09:03:32;;;;;;;7.27;6.57;;;18.10;99.90;;;;;;5056155;28;20889;-65
2021/05/28 09:06:01;;;;;;;6.53;5.93;;;18.40;99.90;;;;;;5050838;28;20279;-65
2021/05/28 09:08:31;;;;;;;5.73;5.23;;;18.30;99.90;;;;;;5050178;28;20471;-65
2021/05/28 09:11:05;;;;;;;5.90;5.40;;;18.50;99.90;;;;;;5064173;28;20446;-66
2021/05/28 09:13:31;;;;;;;6.73;6.03;;;18.50;99.90;;;;;;5067335;28;20462;-65
2021/05/28 09:16:15;;;;;;;6.50;6.00;;;18.80;99.90;;;;;;5067067;28;20449;-66
2021/05/28 09:18:42;;;;;;;7.00;6.50;;;18.60;99.90;;;;;;5052334;28;20499;-62
2021/05/28 09:21:08;;;;;;;8.70;6.80;;;18.40;99.90;;;;;;5060020;28;20955;-65
2021/05/28 09:23:34;;;;;;;7.30;6.63;;;18.30;99.90;;;;;;5059037;28;20459;-65
2021/05/28 09:26:05;;;;;;;6.67;6.03;;;18.40;99.90;;;;;;5066894;28;20438;-65
2021/05/28 09:28:40;;;;;;;7.00;6.50;;;19.00;99.90;;;;;;5057801;28;20549;-65
2021/05/28 09:31:08;;;;;;;6.20;5.60;;;19.30;99.90;;;;;;5067474;28;20499;-66
2021/05/28 09:33:38;;;;;;;7.47;6.77;;;19.10;99.90;;;;;;5062513;28;20486;-65
2021/05/28 09:36:15;;;;;;;6.97;6.20;;;18.80;99.90;;;;;;5066833;28;20778;-65
2021/05/28 09:39:12;;;;;;;6.60;5.30;;;18.60;99.90;;;;;;5055960;28;20462;-64
2021/05/28 09:41:45;;;;;;;8.57;6.30;;;18.40;99.90;;;;;;5055384;28;20527;-65
2021/05/28 09:44:25;;;;;;;7.67;5.70;;;18.20;99.90;;;;;;5065240;28;20566;-66
2021/05/28 09:47:02;;;;;;;7.03;5.93;;;18.10;99.90;;;;;;5065211;28;21044;-65
2021/05/28 09:49:51;;;;;;;6.80;6.20;;;18.10;99.90;;;;;;5063021;28;20546;-64
2021/05/28 09:52:27;;;;;;;6.17;5.33;;;18.20;99.90;;;;;;5054905;28;20559;-65
2021/05/28 09:54:56;;;;;;;5.97;5.37;;;18.30;99.90;;;;;;5062491;28;20443;-66
2021/05/28 09:57:38;;;;;;;7.90;7.20;;;18.50;99.90;;;;;;5052367;28;20828;-66
2021/05/28 10:00:29;;;;;;;8.27;7.47;;;19.00;99.90;;;;;;5050936;28;20509;-65
2021/05/28 10:03:22;;;;;;;6.67;6.10;;;19.20;99.90;;;;;;5061383;28;20526;-66
2021/05/28 10:05:58;;;;;;;15.70;9.43;;;19.10;99.90;;;;;;5062060;28;20430;-65
2021/05/28 10:08:26;;;;;;;7.03;6.23;;;18.80;99.90;;;;;;5051808;28;20473;-64
2021/05/28 10:10:55;;;;;;;6.80;6.20;;;18.70;99.90;;;;;;5063403;28;20435;-65
2021/05/28 10:13:22;;;;;;;5.93;5.40;;;18.60;99.90;;;;;;5068374;28;20439;-65
2021/05/28 10:15:53;;;;;;;7.53;5.80;;;19.00;99.90;;;;;;5062879;28;20434;-64
2021/05/28 10:18:20;;;;;;;6.17;5.50;;;19.60;99.90;;;;;;5051345;28;20567;-65
2021/05/28 10:20:48;;;;;;;7.73;6.33;;;20.00;99.00;;;;;;5048944;28;20985;-69
2021/05/28 10:23:17;;;;;;;5.60;4.80;;;20.60;98.20;;;;;;5051801;28;20455;-66
2021/05/28 10:25:45;;;;;;;6.43;5.87;;;20.80;97.30;;;;;;5058946;28;20478;-65
2021/05/28 10:28:21;;;;;;;6.10;5.60;;;20.50;97.20;;;;;;5064887;28;20501;-65
2021/05/28 10:30:49;;;;;;;6.90;6.30;;;20.00;98.00;;;;;;5060055;28;20436;-65
2021/05/28 10:33:20;;;;;;;6.13;5.53;;;19.90;98.20;;;;;;5050654;28;20451;-65
2021/05/28 10:35:49;;;;;;;6.07;5.50;;;19.70;98.60;;;;;;5068540;28;20510;-66
2021/05/28 10:38:29;;;;;;;6.63;6.03;;;19.60;98.60;;;;;;5064512;28;21108;-65
2021/05/28 10:41:04;;;;;;;5.10;3.90;;;19.80;97.90;;;;;;5061348;28;21006;-65
2021/05/28 10:43:31;;;;;;;4.23;3.83;;;20.80;95.60;;;;;;5053952;28;20447;-65
2021/05/28 10:46:04;;;;;;;6.67;5.10;;;21.70;93.30;;;;;;5049768;28;21332;-65
2021/05/28 10:48:42;;;;;;;4.83;4.33;;;22.50;90.50;;;;;;5058050;28;20477;-65
2021/05/28 10:51:29;;;;;;;4.40;3.57;;;22.60;89.10;;;;;;5068661;28;20997;-65
2021/05/28 10:53:55;;;;;;;7.70;7.10;;;23.00;86.10;;;;;;5066835;28;20427;-65
2021/05/28 10:56:44;;;;;;;11.63;8.40;;;23.20;81.60;;;;;;5080709;28;20440;-65
2021/05/28 10:59:10;;;;;;;5.83;4.70;;;22.60;81.80;;;;;;5059379;28;20200;-64
2021/05/28 11:01:42;;;;;;;4.53;4.03;;;22.40;83.90;;;;;;5048665;28;20424;-64
2021/05/28 11:04:37;;;;;;;4.27;3.87;;;22.20;82.50;;;;;;5068843;28;20436;-66
2021/05/28 11:07:05;;;;;;;4.10;3.70;;;22.60;81.20;;;;;;5067035;28;21248;-65
2021/05/28 11:09:37;;;;;;;3.93;3.53;;;24.50;75.80;;;;;;5054318;28;20869;-65
2021/05/28 11:12:06;;;;;;;4.33;3.90;;;24.80;70.20;;;;;;5050685;28;20436;-65
2021/05/28 11:14:35;;;;;;;5.03;3.70;;;24.90;69.20;;;;;;5051910;28;20514;-67
2021/05/28 11:17:00;;;;;;;3.90;3.60;;;24.70;67.90;;;;;;5054031;28;20542;-68
2021/05/28 11:19:29;;;;;;;4.50;4.07;;;25.40;66.90;;;;;;5057554;28;20992;-66
2021/05/28 11:22:12;;;;;;;5.00;4.53;;;25.80;63.90;;;;;;5058645;28;20186;-66
2021/05/28 11:24:48;;;;;;;3.37;3.17;;;26.80;61.30;;;;;;5049834;28;20787;-66
2021/05/28 11:27:34;;;;;;;4.33;4.00;;;26.80;58.80;;;;;;5068529;28;20531;-66
2021/05/28 11:30:02;;;;;;;3.77;3.47;;;25.80;59.10;;;;;;5052564;28;20478;-66
2021/05/28 11:32:33;;;;;;;5.53;5.03;;;24.20;60.60;;;;;;5049339;28;20436;-66
2021/05/28 11:35:12;;;;;;;4.10;3.83;;;23.20;62.50;;;;;;5048253;28;21055;-66
2021/05/28 11:37:39;;;;;;;4.77;4.40;;;22.40;64.30;;;;;;5048015;28;20968;-66
2021/05/28 11:40:18;;;;;;;4.53;4.13;;;22.20;65.20;;;;;;5048211;28;20479;-66
2021/05/28 11:42:45;;;;;;;5.10;4.60;;;23.80;64.70;;;;;;5048188;28;20427;-66
2021/05/28 11:45:15;;;;;;;7.50;6.80;;;25.80;60.10;;;;;;5049323;28;20451;-66
2021/05/28 11:47:41;;;;;;;4.33;4.10;;;26.90;57.00;;;;;;5048949;28;20537;-66
2021/05/28 11:50:10;;;;;;;4.40;4.00;;;26.70;56.00;;;;;;5059155;28;20483;-66
2021/05/28 11:52:37;;;;;;;4.33;4.03;;;25.50;56.40;;;;;;5065804;28;20800;-66
2021/05/28 11:55:11;;;;;;;5.90;4.10;;;24.20;59.30;;;;;;5067233;28;20434;-66
2021/05/28 11:57:37;;;;;;;4.53;4.13;;;22.90;61.30;;;;;;5065948;28;20438;-66
2021/05/28 12:00:08;;;;;;;4.60;4.20;;;22.50;64.70;;;;;;5064120;28;20451;-66
2021/05/28 12:02:38;;;;;;;3.90;3.50;;;22.00;64.90;;;;;;5066694;28;20430;-66
2021/05/28 12:05:34;;;;;;;5.03;4.50;;;21.90;65.30;;;;;;5065442;28;20447;-66
2021/05/28 12:08:27;;;;;;;5.17;4.70;;;21.50;65.30;;;;;;5054267;28;22242;-66
2021/05/28 12:11:00;;;;;;;5.77;5.10;;;21.30;66.20;;;;;;5066666;28;20441;-66
2021/05/28 12:13:27;;;;;;;6.30;4.67;;;21.10;67.90;;;;;;5067550;28;20411;-66
2021/05/28 12:16:00;;;;;;;6.80;5.50;;;21.40;68.40;;;;;;5059904;28;20435;-66
2021/05/28 12:18:34;;;;;;;5.23;4.70;;;21.80;66.40;;;;;;5052347;28;20537;-66
2021/05/28 12:21:13;;;;;;;5.37;4.70;;;24.90;63.20;;;;;;5047217;28;20420;-67
2021/05/28 12:24:06;;;;;;;5.37;4.87;;;27.30;56.10;;;;;;5060425;28;20447;-66
2021/05/28 12:26:32;;;;;;;4.40;4.10;;;29.00;54.20;;;;;;5064115;28;20439;-67
2021/05/28 12:29:00;;;;;;;6.13;3.70;;;31.70;49.80;;;;;;5058340;28;20566;-66
2021/05/28 12:31:31;;;;;;;3.70;3.40;;;33.60;45.70;;;;;;5065202;28;20434;-67
2021/05/28 12:33:58;;;;;;;4.20;3.80;;;32.90;41.80;;;;;;5064401;28;20434;-66
2021/05/28 12:36:27;;;;;;;3.63;3.33;;;30.50;42.20;;;;;;5060943;28;20454;-66
2021/05/28 12:38:53;;;;;;;4.77;3.50;;;28.30;44.40;;;;;;5061059;28;20497;-66
2021/05/28 12:41:23;;;;;;;3.67;3.37;;;26.50;46.10;;;;;;5064604;28;20520;-66
2021/05/28 12:43:53;;;;;;;4.60;4.20;;;25.30;48.00;;;;;;5066187;28;20478;-66
2021/05/28 12:46:19;;;;;;;3.70;3.40;;;23.20;50.30;;;;;;5066246;28;20453;-66
2021/05/28 12:48:48;;;;;;;4.10;3.73;;;22.20;52.40;;;;;;5068402;28;20463;-66